sensor_id;sensor_type;location;lat;lon;timestamp;P1;durP1;ratioP1;P2;durP2;ratioP2
8536;SDS011;4306;50.210;10.628;2022-10-16T00:00:46;7.25;;;1.20;;
8536;SDS011;4306;50.210;10.628;2022-10-16T00:03:13;2.30;;;1.00;;
8536;SDS011;4306;50.210;10.628;2022-10-16T00:05:41;2.95;;;0.98;;
8536;SDS011;4306;50.210;10.628;2022-10-16T00:08:10;2.67;;;1.10;;
8536;SDS011;4306;50.210;10.628;2022-10-16T00:10:38;1.65;;;1.17;;
8536;SDS011;4306;50.210;10.628;2022-10-16T00:13:07;2.83;;;1.05;;
8536;SDS011;4306;50.210;10.628;2022-10-16T00:15:34;3.33;;;1.00;;
8536;SDS011;4306;50.210;10.628;2022-10-16T00:18:02;5.47;;;1.50;;
8536;SDS011;4306;50.210;10.628;2022-10-16T00:20:29;5.30;;;1.15;;
8536;SDS011;4306;50.210;10.628;2022-10-16T00:22:59;4.63;;;0.80;;
8536;SDS011;4306;50.210;10.628;2022-10-16T00:25:26;1.13;;;0.80;;
8536;SDS011;4306;50.210;10.628;2022-10-16T00:27:52;0.82;;;0.80;;
8536;SDS011;4306;50.210;10.628;2022-10-16T00:30:21;1.70;;;0.80;;
8536;SDS011;4306;50.210;10.628;2022-10-16T00:32:48;1.80;;;0.85;;
8536;SDS011;4306;50.210;10.628;2022-10-16T00:35:15;1.23;;;0.90;;
8536;SDS011;4306;50.210;10.628;2022-10-16T00:37:42;2.38;;;0.90;;
8536;SDS011;4306;50.210;10.628;2022-10-16T00:40:09;4.50;;;1.00;;
8536;SDS011;4306;50.210;10.628;2022-10-16T00:42:36;2.50;;;1.00;;
8536;SDS011;4306;50.210;10.628;2022-10-16T00:45:03;2.72;;;1.10;;
8536;SDS011;4306;50.210;10.628;2022-10-16T00:47:34;1.75;;;0.85;;
8536;SDS011;4306;50.210;10.628;2022-10-16T00:50:04;1.30;;;0.95;;
8536;SDS011;4306;50.210;10.628;2022-10-16T00:52:34;2.90;;;1.10;;
8536;SDS011;4306;50.210;10.628;2022-10-16T00:55:03;2.83;;;1.30;;
8536;SDS011;4306;50.210;10.628;2022-10-16T00:57:32;2.28;;;1.10;;
8536;SDS011;4306;50.210;10.628;2022-10-16T00:59:59;3.03;;;1.10;;
8536;SDS011;4306;50.210;10.628;2022-10-16T01:02:26;2.28;;;1.20;;
8536;SDS011;4306;50.210;10.628;2022-10-16T01:04:54;2.50;;;1.40;;
8536;SDS011;4306;50.210;10.628;2022-10-16T01:07:26;2.78;;;1.50;;
8536;SDS011;4306;50.210;10.628;2022-10-16T01:10:02;1.65;;;1.30;;
8536;SDS011;4306;50.210;10.628;2022-10-16T01:12:40;5.80;;;1.30;;
8536;SDS011;4306;50.210;10.628;2022-10-16T01:15:12;3.60;;;1.10;;
8536;SDS011;4306;50.210;10.628;2022-10-16T01:17:45;2.10;;;1.10;;
8536;SDS011;4306;50.210;10.628;2022-10-16T01:20:21;3.88;;;1.10;;
8536;SDS011;4306;50.210;10.628;2022-10-16T01:23:04;2.88;;;1.30;;
8536;SDS011;4306;50.210;10.628;2022-10-16T01:25:39;3.80;;;1.27;;
8536;SDS011;4306;50.210;10.628;2022-10-16T01:28:34;4.38;;;1.20;;
8536;SDS011;4306;50.210;10.628;2022-10-16T01:31:04;2.85;;;1.10;;
8536;SDS011;4306;50.210;10.628;2022-10-16T01:33:34;3.50;;;1.20;;
8536;SDS011;4306;50.210;10.628;2022-10-16T01:36:07;2.22;;;1.15;;
8536;SDS011;4306;50.210;10.628;2022-10-16T01:38:38;2.72;;;1.02;;
8536;SDS011;4306;50.210;10.628;2022-10-16T01:41:07;1.88;;;1.10;;
8536;SDS011;4306;50.210;10.628;2022-10-16T01:43:39;1.90;;;1.10;;
8536;SDS011;4306;50.210;10.628;2022-10-16T01:46:08;1.65;;;1.10;;
8536;SDS011;4306;50.210;10.628;2022-10-16T01:48:36;2.80;;;1.40;;
8536;SDS011;4306;50.210;10.628;2022-10-16T01:51:05;3.58;;;1.10;;
8536;SDS011;4306;50.210;10.628;2022-10-16T01:53:36;2.70;;;1.05;;
8536;SDS011;4306;50.210;10.628;2022-10-16T01:56:04;2.75;;;1.27;;
8536;SDS011;4306;50.210;10.628;2022-10-16T01:58:35;1.60;;;1.20;;
8536;SDS011;4306;50.210;10.628;2022-10-16T02:01:07;1.75;;;1.17;;
8536;SDS011;4306;50.210;10.628;2022-10-16T02:03:36;2.22;;;1.20;;
8536;SDS011;4306;50.210;10.628;2022-10-16T02:06:07;3.42;;;1.15;;
8536;SDS011;4306;50.210;10.628;2022-10-16T02:08:34;1.83;;;1.08;;
8536;SDS011;4306;50.210;10.628;2022-10-16T02:11:03;1.42;;;1.13;;
8536;SDS011;4306;50.210;10.628;2022-10-16T02:13:54;1.55;;;0.90;;
8536;SDS011;4306;50.210;10.628;2022-10-16T02:16:33;2.75;;;0.80;;
8536;SDS011;4306;50.210;10.628;2022-10-16T02:19:01;2.10;;;1.00;;
8536;SDS011;4306;50.210;10.628;2022-10-16T02:21:33;1.10;;;0.90;;
8536;SDS011;4306;50.210;10.628;2022-10-16T02:24:08;2.22;;;0.95;;
8536;SDS011;4306;50.210;10.628;2022-10-16T02:26:44;1.83;;;0.90;;
8536;SDS011;4306;50.210;10.628;2022-10-16T02:29:19;1.42;;;0.88;;
8536;SDS011;4306;50.210;10.628;2022-10-16T02:31:52;0.90;;;0.73;;
8536;SDS011;4306;50.210;10.628;2022-10-16T02:34:23;2.05;;;1.08;;
8536;SDS011;4306;50.210;10.628;2022-10-16T02:36:53;2.42;;;0.75;;
8536;SDS011;4306;50.210;10.628;2022-10-16T02:39:21;0.80;;;0.60;;
8536;SDS011;4306;50.210;10.628;2022-10-16T02:41:55;0.80;;;0.73;;
8536;SDS011;4306;50.210;10.628;2022-10-16T02:44:22;0.82;;;0.60;;
8536;SDS011;4306;50.210;10.628;2022-10-16T02:46:51;1.50;;;0.70;;
8536;SDS011;4306;50.210;10.628;2022-10-16T02:49:21;0.98;;;0.80;;
8536;SDS011;4306;50.210;10.628;2022-10-16T02:51:48;2.63;;;0.75;;
8536;SDS011;4306;50.210;10.628;2022-10-16T02:54:15;1.83;;;0.80;;
8536;SDS011;4306;50.210;10.628;2022-10-16T02:56:41;1.48;;;0.80;;
8536;SDS011;4306;50.210;10.628;2022-10-16T02:59:08;1.17;;;0.90;;
8536;SDS011;4306;50.210;10.628;2022-10-16T03:01:35;1.25;;;0.80;;
8536;SDS011;4306;50.210;10.628;2022-10-16T03:04:04;1.33;;;0.90;;
8536;SDS011;4306;50.210;10.628;2022-10-16T03:06:31;4.00;;;1.05;;
8536;SDS011;4306;50.210;10.628;2022-10-16T03:08:57;2.65;;;1.00;;
8536;SDS011;4306;50.210;10.628;2022-10-16T03:11:24;1.50;;;1.00;;
8536;SDS011;4306;50.210;10.628;2022-10-16T03:13:51;2.15;;;1.00;;
8536;SDS011;4306;50.210;10.628;2022-10-16T03:16:18;1.98;;;0.90;;
8536;SDS011;4306;50.210;10.628;2022-10-16T03:18:47;3.55;;;2.08;;
8536;SDS011;4306;50.210;10.628;2022-10-16T03:21:16;2.50;;;1.60;;
8536;SDS011;4306;50.210;10.628;2022-10-16T03:23:43;3.42;;;2.00;;
8536;SDS011;4306;50.210;10.628;2022-10-16T03:26:10;4.05;;;2.13;;
8536;SDS011;4306;50.210;10.628;2022-10-16T03:28:37;2.35;;;1.50;;
8536;SDS011;4306;50.210;10.628;2022-10-16T03:31:04;3.35;;;1.85;;
8536;SDS011;4306;50.210;10.628;2022-10-16T03:33:31;3.85;;;3.00;;
8536;SDS011;4306;50.210;10.628;2022-10-16T03:35:58;5.20;;;4.13;;
8536;SDS011;4306;50.210;10.628;2022-10-16T03:38:26;2.85;;;1.80;;
8536;SDS011;4306;50.210;10.628;2022-10-16T03:40:53;4.82;;;3.60;;
8536;SDS011;4306;50.210;10.628;2022-10-16T03:43:23;3.85;;;1.95;;
8536;SDS011;4306;50.210;10.628;2022-10-16T03:45:50;1.92;;;1.50;;
8536;SDS011;4306;50.210;10.628;2022-10-16T03:48:17;2.08;;;1.10;;
8536;SDS011;4306;50.210;10.628;2022-10-16T03:50:44;3.58;;;0.90;;
8536;SDS011;4306;50.210;10.628;2022-10-16T03:53:11;1.90;;;0.90;;
8536;SDS011;4306;50.210;10.628;2022-10-16T03:55:40;4.53;;;1.10;;
8536;SDS011;4306;50.210;10.628;2022-10-16T03:58:08;1.60;;;1.00;;
8536;SDS011;4306;50.210;10.628;2022-10-16T04:00:35;5.65;;;0.95;;
8536;SDS011;4306;50.210;10.628;2022-10-16T04:03:01;4.40;;;1.13;;
8536;SDS011;4306;50.210;10.628;2022-10-16T04:05:28;1.70;;;1.00;;
8536;SDS011;4306;50.210;10.628;2022-10-16T04:07:55;3.08;;;1.00;;
8536;SDS011;4306;50.210;10.628;2022-10-16T04:10:22;0.80;;;0.80;;
8536;SDS011;4306;50.210;10.628;2022-10-16T04:12:50;1.48;;;1.10;;
8536;SDS011;4306;50.210;10.628;2022-10-16T04:15:19;3.10;;;1.10;;
8536;SDS011;4306;50.210;10.628;2022-10-16T04:17:47;3.03;;;1.15;;
8536;SDS011;4306;50.210;10.628;2022-10-16T04:20:14;1.52;;;1.00;;
8536;SDS011;4306;50.210;10.628;2022-10-16T04:22:41;1.13;;;1.02;;
8536;SDS011;4306;50.210;10.628;2022-10-16T04:25:08;1.38;;;0.98;;
8536;SDS011;4306;50.210;10.628;2022-10-16T04:27:36;2.10;;;1.13;;
8536;SDS011;4306;50.210;10.628;2022-10-16T04:30:05;1.55;;;1.05;;
8536;SDS011;4306;50.210;10.628;2022-10-16T04:32:32;3.13;;;1.05;;
8536;SDS011;4306;50.210;10.628;2022-10-16T04:34:59;2.40;;;0.95;;
8536;SDS011;4306;50.210;10.628;2022-10-16T04:37:27;1.80;;;1.00;;
8536;SDS011;4306;50.210;10.628;2022-10-16T04:39:55;2.38;;;1.50;;
8536;SDS011;4306;50.210;10.628;2022-10-16T04:42:21;4.70;;;2.55;;
8536;SDS011;4306;50.210;10.628;2022-10-16T04:44:48;8.05;;;5.68;;
8536;SDS011;4306;50.210;10.628;2022-10-16T04:47:16;7.32;;;6.25;;
8536;SDS011;4306;50.210;10.628;2022-10-16T04:49:43;4.80;;;3.72;;
8536;SDS011;4306;50.210;10.628;2022-10-16T04:52:10;2.78;;;1.40;;
8536;SDS011;4306;50.210;10.628;2022-10-16T04:54:37;3.65;;;1.75;;
8536;SDS011;4306;50.210;10.628;2022-10-16T04:57:04;6.75;;;2.63;;
8536;SDS011;4306;50.210;10.628;2022-10-16T04:59:31;5.95;;;3.72;;
8536;SDS011;4306;50.210;10.628;2022-10-16T05:01:58;3.83;;;2.50;;
8536;SDS011;4306;50.210;10.628;2022-10-16T05:04:26;4.50;;;2.55;;
8536;SDS011;4306;50.210;10.628;2022-10-16T05:06:53;3.42;;;1.95;;
8536;SDS011;4306;50.210;10.628;2022-10-16T05:09:20;5.05;;;2.20;;
8536;SDS011;4306;50.210;10.628;2022-10-16T05:11:47;3.88;;;2.30;;
8536;SDS011;4306;50.210;10.628;2022-10-16T05:14:14;2.60;;;2.25;;
8536;SDS011;4306;50.210;10.628;2022-10-16T05:16:41;4.90;;;3.00;;
8536;SDS011;4306;50.210;10.628;2022-10-16T05:19:08;11.13;;;10.02;;
8536;SDS011;4306;50.210;10.628;2022-10-16T05:21:36;5.28;;;4.47;;
8536;SDS011;4306;50.210;10.628;2022-10-16T05:24:03;7.45;;;5.40;;
8536;SDS011;4306;50.210;10.628;2022-10-16T05:26:30;6.72;;;2.38;;
8536;SDS011;4306;50.210;10.628;2022-10-16T05:28:57;4.65;;;2.55;;
8536;SDS011;4306;50.210;10.628;2022-10-16T05:31:24;5.10;;;2.15;;
8536;SDS011;4306;50.210;10.628;2022-10-16T05:33:51;2.05;;;1.48;;
8536;SDS011;4306;50.210;10.628;2022-10-16T05:36:17;2.58;;;1.38;;
8536;SDS011;4306;50.210;10.628;2022-10-16T05:38:46;4.75;;;1.48;;
8536;SDS011;4306;50.210;10.628;2022-10-16T05:41:17;2.30;;;1.60;;
8536;SDS011;4306;50.210;10.628;2022-10-16T05:43:46;4.35;;;1.60;;
8536;SDS011;4306;50.210;10.628;2022-10-16T05:46:14;2.53;;;1.92;;
8536;SDS011;4306;50.210;10.628;2022-10-16T05:48:41;2.17;;;1.48;;
8536;SDS011;4306;50.210;10.628;2022-10-16T05:51:09;2.53;;;1.42;;
8536;SDS011;4306;50.210;10.628;2022-10-16T05:53:37;1.80;;;1.40;;
8536;SDS011;4306;50.210;10.628;2022-10-16T05:56:08;3.83;;;1.40;;
8536;SDS011;4306;50.210;10.628;2022-10-16T05:58:37;3.60;;;1.60;;
8536;SDS011;4306;50.210;10.628;2022-10-16T06:01:06;2.10;;;1.60;;
8536;SDS011;4306;50.210;10.628;2022-10-16T06:03:35;2.92;;;1.40;;
8536;SDS011;4306;50.210;10.628;2022-10-16T06:06:07;1.98;;;1.30;;
8536;SDS011;4306;50.210;10.628;2022-10-16T06:08:34;2.35;;;1.40;;
8536;SDS011;4306;50.210;10.628;2022-10-16T06:11:02;2.42;;;1.50;;
8536;SDS011;4306;50.210;10.628;2022-10-16T06:13:31;2.50;;;1.30;;
8536;SDS011;4306;50.210;10.628;2022-10-16T06:15:58;2.70;;;1.40;;
8536;SDS011;4306;50.210;10.628;2022-10-16T06:18:26;2.45;;;1.70;;
8536;SDS011;4306;50.210;10.628;2022-10-16T06:20:54;2.80;;;2.10;;
8536;SDS011;4306;50.210;10.628;2022-10-16T06:23:22;3.47;;;1.90;;
8536;SDS011;4306;50.210;10.628;2022-10-16T06:25:49;3.00;;;2.00;;
8536;SDS011;4306;50.210;10.628;2022-10-16T06:28:16;3.10;;;2.00;;
8536;SDS011;4306;50.210;10.628;2022-10-16T06:30:44;7.20;;;3.80;;
8536;SDS011;4306;50.210;10.628;2022-10-16T06:33:11;17.02;;;9.55;;
8536;SDS011;4306;50.210;10.628;2022-10-16T06:35:38;7.55;;;4.20;;
8536;SDS011;4306;50.210;10.628;2022-10-16T06:38:05;7.78;;;4.40;;
8536;SDS011;4306;50.210;10.628;2022-10-16T06:40:31;3.80;;;2.58;;
8536;SDS011;4306;50.210;10.628;2022-10-16T06:42:58;5.00;;;3.20;;
8536;SDS011;4306;50.210;10.628;2022-10-16T06:45:25;4.35;;;3.33;;
8536;SDS011;4306;50.210;10.628;2022-10-16T06:47:53;4.53;;;2.95;;
8536;SDS011;4306;50.210;10.628;2022-10-16T06:50:20;4.13;;;3.33;;
8536;SDS011;4306;50.210;10.628;2022-10-16T06:52:47;4.07;;;2.85;;
8536;SDS011;4306;50.210;10.628;2022-10-16T06:55:14;6.70;;;3.28;;
8536;SDS011;4306;50.210;10.628;2022-10-16T06:57:42;4.68;;;3.65;;
8536;SDS011;4306;50.210;10.628;2022-10-16T07:00:12;4.22;;;2.65;;
8536;SDS011;4306;50.210;10.628;2022-10-16T07:02:39;3.35;;;2.45;;
8536;SDS011;4306;50.210;10.628;2022-10-16T07:05:08;5.53;;;3.95;;
8536;SDS011;4306;50.210;10.628;2022-10-16T07:07:38;14.68;;;10.52;;
8536;SDS011;4306;50.210;10.628;2022-10-16T07:10:05;7.93;;;4.93;;
8536;SDS011;4306;50.210;10.628;2022-10-16T07:12:37;6.47;;;3.55;;
8536;SDS011;4306;50.210;10.628;2022-10-16T07:15:05;3.15;;;1.75;;
8536;SDS011;4306;50.210;10.628;2022-10-16T07:17:32;2.85;;;2.10;;
8536;SDS011;4306;50.210;10.628;2022-10-16T07:19:59;2.47;;;1.90;;
8536;SDS011;4306;50.210;10.628;2022-10-16T07:22:29;3.47;;;1.98;;
8536;SDS011;4306;50.210;10.628;2022-10-16T07:24:56;2.65;;;2.10;;
8536;SDS011;4306;50.210;10.628;2022-10-16T07:27:22;1.52;;;1.23;;
8536;SDS011;4306;50.210;10.628;2022-10-16T07:29:50;3.55;;;1.35;;
8536;SDS011;4306;50.210;10.628;2022-10-16T07:32:16;3.13;;;1.30;;
8536;SDS011;4306;50.210;10.628;2022-10-16T07:34:43;5.00;;;1.85;;
8536;SDS011;4306;50.210;10.628;2022-10-16T07:37:10;4.78;;;1.80;;
8536;SDS011;4306;50.210;10.628;2022-10-16T07:39:39;4.22;;;1.80;;
8536;SDS011;4306;50.210;10.628;2022-10-16T07:42:05;3.67;;;1.85;;
8536;SDS011;4306;50.210;10.628;2022-10-16T07:44:32;6.35;;;4.40;;
8536;SDS011;4306;50.210;10.628;2022-10-16T07:46:59;10.55;;;5.75;;
8536;SDS011;4306;50.210;10.628;2022-10-16T07:49:26;4.53;;;3.65;;
8536;SDS011;4306;50.210;10.628;2022-10-16T07:51:53;5.15;;;2.58;;
8536;SDS011;4306;50.210;10.628;2022-10-16T07:54:20;3.17;;;1.80;;
8536;SDS011;4306;50.210;10.628;2022-10-16T07:56:48;5.70;;;1.52;;
8536;SDS011;4306;50.210;10.628;2022-10-16T07:59:15;4.72;;;2.35;;
8536;SDS011;4306;50.210;10.628;2022-10-16T08:01:42;3.42;;;1.70;;
8536;SDS011;4306;50.210;10.628;2022-10-16T08:04:09;5.15;;;1.85;;
8536;SDS011;4306;50.210;10.628;2022-10-16T08:06:37;4.72;;;1.85;;
8536;SDS011;4306;50.210;10.628;2022-10-16T08:09:05;3.95;;;1.73;;
8536;SDS011;4306;50.210;10.628;2022-10-16T08:11:33;2.85;;;1.52;;
8536;SDS011;4306;50.210;10.628;2022-10-16T08:14:01;5.35;;;1.85;;
8536;SDS011;4306;50.210;10.628;2022-10-16T08:16:28;5.90;;;2.40;;
8536;SDS011;4306;50.210;10.628;2022-10-16T08:18:55;5.50;;;1.77;;
8536;SDS011;4306;50.210;10.628;2022-10-16T08:21:22;2.90;;;1.83;;
8536;SDS011;4306;50.210;10.628;2022-10-16T08:23:49;5.28;;;1.58;;
8536;SDS011;4306;50.210;10.628;2022-10-16T08:26:16;2.50;;;1.25;;
8536;SDS011;4306;50.210;10.628;2022-10-16T08:28:44;3.15;;;1.23;;
8536;SDS011;4306;50.210;10.628;2022-10-16T08:31:13;2.35;;;1.38;;
8536;SDS011;4306;50.210;10.628;2022-10-16T08:33:41;3.33;;;1.52;;
8536;SDS011;4306;50.210;10.628;2022-10-16T08:36:10;2.38;;;1.40;;
8536;SDS011;4306;50.210;10.628;2022-10-16T08:38:37;4.63;;;1.60;;
8536;SDS011;4306;50.210;10.628;2022-10-16T08:41:17;3.15;;;1.42;;
8536;SDS011;4306;50.210;10.628;2022-10-16T08:46:46;3.72;;;1.40;;
8536;SDS011;4306;50.210;10.628;2022-10-16T08:49:19;2.90;;;1.42;;
8536;SDS011;4306;50.210;10.628;2022-10-16T08:51:49;6.60;;;2.10;;
8536;SDS011;4306;50.210;10.628;2022-10-16T08:54:28;2.70;;;1.40;;
8536;SDS011;4306;50.210;10.628;2022-10-16T08:57:00;6.03;;;1.75;;
8536;SDS011;4306;50.210;10.628;2022-10-16T08:59:35;3.15;;;1.67;;
8536;SDS011;4306;50.210;10.628;2022-10-16T09:02:03;1.52;;;1.10;;
8536;SDS011;4306;50.210;10.628;2022-10-16T09:05:00;3.30;;;1.50;;
8536;SDS011;4306;50.210;10.628;2022-10-16T09:07:43;2.10;;;0.98;;
8536;SDS011;4306;50.210;10.628;2022-10-16T09:10:24;2.92;;;1.17;;
8536;SDS011;4306;50.210;10.628;2022-10-16T09:13:02;3.13;;;1.60;;
8536;SDS011;4306;50.210;10.628;2022-10-16T09:15:42;3.17;;;1.80;;
8536;SDS011;4306;50.210;10.628;2022-10-16T09:18:17;2.67;;;1.23;;
8536;SDS011;4306;50.210;10.628;2022-10-16T09:20:49;6.13;;;1.38;;
8536;SDS011;4306;50.210;10.628;2022-10-16T09:23:21;5.25;;;1.63;;
8536;SDS011;4306;50.210;10.628;2022-10-16T09:25:51;3.35;;;1.60;;
8536;SDS011;4306;50.210;10.628;2022-10-16T09:28:19;3.60;;;1.45;;
8536;SDS011;4306;50.210;10.628;2022-10-16T09:30:46;3.67;;;1.38;;
8536;SDS011;4306;50.210;10.628;2022-10-16T09:33:17;2.88;;;1.10;;
8536;SDS011;4306;50.210;10.628;2022-10-16T09:35:46;1.83;;;1.38;;
8536;SDS011;4306;50.210;10.628;2022-10-16T09:38:22;2.50;;;1.00;;
8536;SDS011;4306;50.210;10.628;2022-10-16T09:40:51;1.20;;;0.93;;
8536;SDS011;4306;50.210;10.628;2022-10-16T09:43:20;3.33;;;1.27;;
8536;SDS011;4306;50.210;10.628;2022-10-16T09:45:56;2.83;;;1.00;;
8536;SDS011;4306;50.210;10.628;2022-10-16T09:48:27;3.17;;;1.10;;
8536;SDS011;4306;50.210;10.628;2022-10-16T09:50:59;3.05;;;0.93;;
8536;SDS011;4306;50.210;10.628;2022-10-16T09:53:37;2.90;;;1.20;;
8536;SDS011;4306;50.210;10.628;2022-10-16T09:56:06;3.83;;;1.10;;
8536;SDS011;4306;50.210;10.628;2022-10-16T09:58:34;4.65;;;0.90;;
8536;SDS011;4306;50.210;10.628;2022-10-16T10:01:00;3.88;;;0.98;;
8536;SDS011;4306;50.210;10.628;2022-10-16T10:03:32;5.03;;;1.00;;
8536;SDS011;4306;50.210;10.628;2022-10-16T10:06:05;3.13;;;1.00;;
8536;SDS011;4306;50.210;10.628;2022-10-16T10:11:50;4.03;;;1.10;;
8536;SDS011;4306;50.210;10.628;2022-10-16T10:14:20;1.92;;;1.00;;
8536;SDS011;4306;50.210;10.628;2022-10-16T10:16:49;3.17;;;1.08;;
8536;SDS011;4306;50.210;10.628;2022-10-16T10:19:20;3.05;;;0.80;;
8536;SDS011;4306;50.210;10.628;2022-10-16T10:21:48;3.20;;;0.88;;
8536;SDS011;4306;50.210;10.628;2022-10-16T10:24:17;1.33;;;0.93;;
8536;SDS011;4306;50.210;10.628;2022-10-16T10:26:49;1.88;;;1.08;;
8536;SDS011;4306;50.210;10.628;2022-10-16T10:29:32;2.53;;;0.80;;
8536;SDS011;4306;50.210;10.628;2022-10-16T10:32:11;2.50;;;0.98;;
8536;SDS011;4306;50.210;10.628;2022-10-16T10:34:57;3.15;;;1.00;;
8536;SDS011;4306;50.210;10.628;2022-10-16T10:37:37;3.88;;;1.02;;
8536;SDS011;4306;50.210;10.628;2022-10-16T10:40:22;3.70;;;1.20;;
8536;SDS011;4306;50.210;10.628;2022-10-16T10:42:57;2.42;;;1.20;;
8536;SDS011;4306;50.210;10.628;2022-10-16T10:45:35;4.80;;;1.42;;
8536;SDS011;4306;50.210;10.628;2022-10-16T10:51:18;3.13;;;1.10;;
8536;SDS011;4306;50.210;10.628;2022-10-16T10:53:52;5.63;;;1.40;;
8536;SDS011;4306;50.210;10.628;2022-10-16T10:56:37;3.17;;;1.65;;
8536;SDS011;4306;50.210;10.628;2022-10-16T11:02:22;3.50;;;1.35;;
8536;SDS011;4306;50.210;10.628;2022-10-16T11:05:07;5.55;;;1.45;;
8536;SDS011;4306;50.210;10.628;2022-10-16T11:07:49;7.95;;;1.90;;
8536;SDS011;4306;50.210;10.628;2022-10-16T11:10:21;4.05;;;1.30;;
8536;SDS011;4306;50.210;10.628;2022-10-16T11:12:52;2.28;;;1.40;;
8536;SDS011;4306;50.210;10.628;2022-10-16T11:15:25;3.40;;;1.55;;
8536;SDS011;4306;50.210;10.628;2022-10-16T11:17:57;5.28;;;1.48;;
8536;SDS011;4306;50.210;10.628;2022-10-16T11:20:29;4.80;;;1.38;;
8536;SDS011;4306;50.210;10.628;2022-10-16T11:23:01;3.55;;;1.85;;
8536;SDS011;4306;50.210;10.628;2022-10-16T11:25:35;4.80;;;2.60;;
8536;SDS011;4306;50.210;10.628;2022-10-16T11:28:03;8.15;;;3.92;;
8536;SDS011;4306;50.210;10.628;2022-10-16T11:30:39;5.22;;;2.03;;
8536;SDS011;4306;50.210;10.628;2022-10-16T11:33:20;2.88;;;1.67;;
8536;SDS011;4306;50.210;10.628;2022-10-16T11:35:53;4.35;;;2.40;;
8536;SDS011;4306;50.210;10.628;2022-10-16T11:38:29;2.83;;;1.50;;
8536;SDS011;4306;50.210;10.628;2022-10-16T11:41:02;1.83;;;1.10;;
8536;SDS011;4306;50.210;10.628;2022-10-16T11:43:52;3.35;;;1.55;;
8536;SDS011;4306;50.210;10.628;2022-10-16T11:46:32;3.95;;;2.72;;
8536;SDS011;4306;50.210;10.628;2022-10-16T11:49:03;7.43;;;3.10;;
8536;SDS011;4306;50.210;10.628;2022-10-16T11:51:38;3.15;;;1.60;;
8536;SDS011;4306;50.210;10.628;2022-10-16T11:54:14;3.22;;;1.20;;
8536;SDS011;4306;50.210;10.628;2022-10-16T11:56:47;4.00;;;1.20;;
8536;SDS011;4306;50.210;10.628;2022-10-16T11:59:18;4.15;;;1.20;;
8536;SDS011;4306;50.210;10.628;2022-10-16T12:01:51;3.90;;;1.30;;
8536;SDS011;4306;50.210;10.628;2022-10-16T12:04:24;2.05;;;1.15;;
8536;SDS011;4306;50.210;10.628;2022-10-16T12:06:59;5.13;;;1.20;;
8536;SDS011;4306;50.210;10.628;2022-10-16T12:09:32;1.70;;;0.90;;
8536;SDS011;4306;50.210;10.628;2022-10-16T12:12:02;3.33;;;1.13;;
8536;SDS011;4306;50.210;10.628;2022-10-16T12:14:34;2.13;;;0.80;;
8536;SDS011;4306;50.210;10.628;2022-10-16T12:17:03;3.42;;;0.95;;
8536;SDS011;4306;50.210;10.628;2022-10-16T12:19:56;1.63;;;1.00;;
8536;SDS011;4306;50.210;10.628;2022-10-16T12:22:24;3.58;;;1.15;;
8536;SDS011;4306;50.210;10.628;2022-10-16T12:24:56;1.63;;;1.00;;
8536;SDS011;4306;50.210;10.628;2022-10-16T12:27:26;2.22;;;1.20;;
8536;SDS011;4306;50.210;10.628;2022-10-16T12:29:55;1.65;;;1.08;;
8536;SDS011;4306;50.210;10.628;2022-10-16T12:32:26;2.30;;;1.02;;
8536;SDS011;4306;50.210;10.628;2022-10-16T12:34:56;2.08;;;1.10;;
8536;SDS011;4306;50.210;10.628;2022-10-16T12:37:26;3.78;;;1.27;;
8536;SDS011;4306;50.210;10.628;2022-10-16T12:39:58;4.85;;;1.13;;
8536;SDS011;4306;50.210;10.628;2022-10-16T12:42:36;2.78;;;1.10;;
8536;SDS011;4306;50.210;10.628;2022-10-16T12:45:21;1.90;;;0.98;;
8536;SDS011;4306;50.210;10.628;2022-10-16T12:47:57;3.70;;;1.00;;
8536;SDS011;4306;50.210;10.628;2022-10-16T12:50:29;2.35;;;0.90;;
8536;SDS011;4306;50.210;10.628;2022-10-16T12:52:59;1.67;;;0.90;;
8536;SDS011;4306;50.210;10.628;2022-10-16T12:55:30;3.80;;;1.20;;
8536;SDS011;4306;50.210;10.628;2022-10-16T12:58:11;1.75;;;1.05;;
8536;SDS011;4306;50.210;10.628;2022-10-16T13:00:57;2.25;;;1.00;;
8536;SDS011;4306;50.210;10.628;2022-10-16T13:06:33;2.67;;;1.10;;
8536;SDS011;4306;50.210;10.628;2022-10-16T13:09:08;2.92;;;1.05;;
8536;SDS011;4306;50.210;10.628;2022-10-16T13:11:48;2.10;;;1.00;;
8536;SDS011;4306;50.210;10.628;2022-10-16T13:14:30;1.65;;;0.95;;
8536;SDS011;4306;50.210;10.628;2022-10-16T13:17:16;3.35;;;1.00;;
8536;SDS011;4306;50.210;10.628;2022-10-16T13:19:52;1.90;;;0.90;;
8536;SDS011;4306;50.210;10.628;2022-10-16T13:22:29;1.58;;;0.80;;
8536;SDS011;4306;50.210;10.628;2022-10-16T13:25:05;3.15;;;0.93;;
8536;SDS011;4306;50.210;10.628;2022-10-16T13:27:43;1.73;;;1.00;;
8536;SDS011;4306;50.210;10.628;2022-10-16T13:30:18;1.30;;;0.90;;
8536;SDS011;4306;50.210;10.628;2022-10-16T13:32:48;4.40;;;1.48;;
8536;SDS011;4306;50.210;10.628;2022-10-16T13:35:20;2.78;;;1.25;;
8536;SDS011;4306;50.210;10.628;2022-10-16T13:37:48;5.30;;;1.33;;
8536;SDS011;4306;50.210;10.628;2022-10-16T13:40:19;1.65;;;1.00;;
8536;SDS011;4306;50.210;10.628;2022-10-16T13:42:49;3.53;;;0.80;;
8536;SDS011;4306;50.210;10.628;2022-10-16T13:45:17;2.90;;;1.35;;
8536;SDS011;4306;50.210;10.628;2022-10-16T13:47:45;2.03;;;1.10;;
8536;SDS011;4306;50.210;10.628;2022-10-16T13:50:13;3.10;;;1.30;;
8536;SDS011;4306;50.210;10.628;2022-10-16T13:52:41;2.58;;;1.05;;
8536;SDS011;4306;50.210;10.628;2022-10-16T13:55:10;4.20;;;1.10;;
8536;SDS011;4306;50.210;10.628;2022-10-16T13:57:37;2.67;;;1.13;;
8536;SDS011;4306;50.210;10.628;2022-10-16T14:00:18;2.03;;;1.05;;
8536;SDS011;4306;50.210;10.628;2022-10-16T14:02:49;3.15;;;1.10;;
8536;SDS011;4306;50.210;10.628;2022-10-16T14:05:18;2.10;;;0.80;;
8536;SDS011;4306;50.210;10.628;2022-10-16T14:07:47;2.53;;;1.05;;
8536;SDS011;4306;50.210;10.628;2022-10-16T14:10:20;2.40;;;1.20;;
8536;SDS011;4306;50.210;10.628;2022-10-16T14:12:58;3.10;;;1.05;;
8536;SDS011;4306;50.210;10.628;2022-10-16T14:15:30;1.73;;;1.10;;
8536;SDS011;4306;50.210;10.628;2022-10-16T14:17:59;1.63;;;0.77;;
8536;SDS011;4306;50.210;10.628;2022-10-16T14:20:26;4.55;;;1.17;;
8536;SDS011;4306;50.210;10.628;2022-10-16T14:23:01;1.42;;;0.80;;
8536;SDS011;4306;50.210;10.628;2022-10-16T14:25:30;2.97;;;1.30;;
8536;SDS011;4306;50.210;10.628;2022-10-16T14:28:01;1.30;;;0.90;;
8536;SDS011;4306;50.210;10.628;2022-10-16T14:30:33;2.53;;;0.90;;
8536;SDS011;4306;50.210;10.628;2022-10-16T14:33:02;2.70;;;1.08;;
8536;SDS011;4306;50.210;10.628;2022-10-16T14:35:32;2.47;;;1.02;;
8536;SDS011;4306;50.210;10.628;2022-10-16T14:38:01;7.70;;;1.02;;
8536;SDS011;4306;50.210;10.628;2022-10-16T14:40:29;2.90;;;1.10;;
8536;SDS011;4306;50.210;10.628;2022-10-16T14:42:57;2.70;;;1.10;;
8536;SDS011;4306;50.210;10.628;2022-10-16T14:45:27;3.60;;;0.90;;
8536;SDS011;4306;50.210;10.628;2022-10-16T14:47:58;3.22;;;1.00;;
8536;SDS011;4306;50.210;10.628;2022-10-16T14:50:26;1.55;;;0.90;;
8536;SDS011;4306;50.210;10.628;2022-10-16T14:52:53;1.92;;;1.10;;
8536;SDS011;4306;50.210;10.628;2022-10-16T14:55:20;2.78;;;1.08;;
8536;SDS011;4306;50.210;10.628;2022-10-16T14:57:50;5.00;;;1.17;;
8536;SDS011;4306;50.210;10.628;2022-10-16T15:00:18;2.20;;;1.10;;
8536;SDS011;4306;50.210;10.628;2022-10-16T15:02:47;3.50;;;1.70;;
8536;SDS011;4306;50.210;10.628;2022-10-16T15:05:18;2.58;;;1.58;;
8536;SDS011;4306;50.210;10.628;2022-10-16T15:07:47;7.57;;;4.60;;
8536;SDS011;4306;50.210;10.628;2022-10-16T15:10:15;7.28;;;4.72;;
8536;SDS011;4306;50.210;10.628;2022-10-16T15:12:43;11.40;;;9.13;;
8536;SDS011;4306;50.210;10.628;2022-10-16T15:15:23;9.93;;;7.13;;
8536;SDS011;4306;50.210;10.628;2022-10-16T15:17:54;9.07;;;6.82;;
8536;SDS011;4306;50.210;10.628;2022-10-16T15:20:24;4.63;;;3.50;;
8536;SDS011;4306;50.210;10.628;2022-10-16T15:22:52;2.67;;;1.60;;
8536;SDS011;4306;50.210;10.628;2022-10-16T15:25:25;14.55;;;8.18;;
8536;SDS011;4306;50.210;10.628;2022-10-16T15:27:57;7.20;;;5.05;;
8536;SDS011;4306;50.210;10.628;2022-10-16T15:30:24;8.27;;;6.05;;
8536;SDS011;4306;50.210;10.628;2022-10-16T15:32:51;10.15;;;6.55;;
8536;SDS011;4306;50.210;10.628;2022-10-16T15:35:18;9.65;;;4.68;;